createdAt,value
2022-08-08T00:01:21.050Z,72.08
2022-08-08T00:04:55.783Z,71.71
2022-08-08T00:07:37.991Z,71.85
2022-08-08T00:10:22.193Z,72.88
2022-08-08T00:13:04.221Z,73.48
2022-08-08T00:15:57.429Z,74.02
2022-08-08T00:18:35.028Z,73.52
2022-08-08T00:21:05.227Z,72.83
2022-08-08T00:23:51.332Z,72.52
2022-08-08T00:26:29.805Z,72.83
2022-08-08T00:29:45.799Z,73.28
2022-08-08T00:32:34.662Z,73.70
2022-08-08T00:35:20.110Z,74.06
2022-08-08T00:38:03.138Z,74.41
2022-08-08T00:41:10.573Z,74.45
2022-08-08T00:43:40.797Z,73.62
2022-08-08T00:46:57.438Z,74.22
2022-08-08T00:49:58.393Z,74.36
2022-08-08T00:53:00.754Z,73.54
2022-08-08T00:55:54.139Z,73.63
2022-08-08T00:59:02.861Z,74.96
2022-08-08T01:01:48.497Z,75.12
2022-08-08T01:04:54.994Z,75.55
2022-08-08T01:07:56.576Z,75.55
2022-08-08T01:10:39.962Z,75.32
2022-08-08T01:13:43.283Z,74.81
2022-08-08T01:16:38.435Z,76.24
2022-08-08T01:19:42.008Z,76.79
2022-08-08T01:22:34.868Z,76.88
2022-08-08T01:25:40.906Z,76.93
2022-08-08T01:28:38.929Z,78.07
2022-08-08T01:32:12.796Z,79.73
2022-08-08T01:34:54.580Z,79.41
2022-08-08T01:37:51.204Z,79.79
2022-08-08T01:40:54.393Z,79.46
2022-08-08T01:43:40.109Z,79.23
2022-08-08T01:46:41.883Z,79.78
2022-08-08T01:49:23.429Z,79.83
2022-08-08T01:53:05.217Z,79.83
2022-08-08T01:56:28.146Z,80.31
2022-08-08T01:58:47.258Z,80.57
2022-08-08T02:01:59.961Z,81.54
2022-08-08T02:04:43.474Z,81.06
2022-08-08T02:07:23.955Z,81.65
2022-08-08T02:10:03.897Z,81.43
2022-08-08T02:12:49.492Z,81.23
2022-08-08T02:15:34.962Z,82.12
2022-08-08T02:18:33.547Z,81.55
2022-08-08T02:21:32.601Z,80.40
2022-08-08T02:24:02.863Z,79.53
2022-08-08T02:26:37.537Z,79.94
2022-08-08T02:29:31.407Z,80.03
2022-08-08T02:32:22.791Z,79.09
2022-08-08T02:35:25.017Z,78.44
2022-08-08T02:38:13.041Z,77.89
2022-08-08T02:40:50.121Z,78.16
2022-08-08T02:44:38.730Z,78.80
2022-08-08T02:46:54.373Z,79.48
2022-08-08T02:49:51.430Z,81.18
2022-08-08T02:52:39.577Z,81.49
2022-08-08T02:55:37.701Z,81.09
2022-08-08T02:58:08.601Z,81.74
2022-08-08T03:01:02.800Z,81.62
2022-08-08T03:05:09.186Z,82.33
2022-08-08T03:07:06.937Z,81.90
2022-08-08T03:10:01.856Z,81.55
2022-08-08T03:13:01.688Z,82.61
2022-08-08T03:16:04.026Z,83.17
2022-08-08T03:19:02.049Z,83.67
2022-08-08T03:21:54.759Z,83.78
2022-08-08T03:24:19.649Z,83.96
2022-08-08T03:26:54.525Z,83.84
2022-08-08T03:29:54.442Z,83.43
2022-08-08T03:32:37.226Z,84.21
2022-08-08T03:35:09.814Z,84.12
2022-08-08T03:38:53.365Z,83.48
2022-08-08T03:40:29.515Z,83.57
2022-08-08T03:42:58.713Z,83.45
2022-08-08T03:46:07.395Z,83.43
2022-08-08T03:49:09.958Z,83.29
2022-08-08T03:51:16.523Z,83.21
2022-08-08T03:53:47.791Z,82.80
2022-08-08T03:56:31.552Z,83.19
2022-08-08T03:58:58.953Z,82.52
2022-08-08T04:02:13.174Z,83.07
2022-08-08T04:04:23.067Z,83.19
2022-08-08T04:06:58.227Z,83.44
2022-08-08T04:09:47.196Z,84.26
2022-08-08T04:12:15.680Z,84.54
2022-08-08T04:14:45.232Z,84.51
2022-08-08T04:17:22.348Z,84.35
2022-08-08T04:19:59.175Z,84.34
2022-08-08T04:22:29.458Z,85.02
2022-08-08T04:24:56.761Z,85.82
2022-08-08T04:28:01.890Z,85.50
2022-08-08T04:30:17.224Z,84.42
2022-08-08T04:32:45.626Z,84.24
2022-08-08T04:35:14.692Z,83.02
2022-08-08T04:37:41.205Z,82.40
2022-08-08T04:40:12.471Z,82.75
2022-08-08T04:42:56.365Z,84.01
2022-08-08T04:45:27.057Z,84.12
2022-08-08T04:47:54.469Z,85.03
2022-08-08T04:50:24.824Z,84.78
2022-08-08T04:53:00.987Z,84.60
2022-08-08T04:55:47.419Z,85.27
2022-08-08T04:58:18.483Z,85.65
2022-08-08T05:00:48.274Z,85.38
2022-08-08T05:03:18.758Z,84.92
2022-08-08T05:06:13.207Z,85.21
2022-08-08T05:08:46.345Z,85.45
2022-08-08T05:11:24.679Z,85.03
2022-08-08T05:13:58.462Z,85.81
2022-08-08T05:16:54.581Z,85.53
2022-08-08T05:20:10.912Z,86.17
2022-08-08T05:22:02.101Z,87.55
2022-08-08T05:24:30.795Z,86.40
2022-08-08T05:26:57.843Z,84.81
2022-08-08T05:29:25.182Z,84.39
2022-08-08T05:32:03.201Z,83.86
2022-08-08T05:34:49.838Z,83.49
2022-08-08T05:37:19.690Z,83.71
2022-08-08T05:39:52.777Z,83.29
2022-08-08T05:42:26.597Z,83.90
2022-08-08T05:44:54.508Z,83.10
2022-08-08T05:47:41.675Z,82.11
2022-08-08T05:50:13.643Z,80.75
2022-08-08T05:52:43.992Z,79.82
2022-08-08T05:55:10.793Z,81.28
2022-08-08T05:58:05.335Z,80.59
2022-08-08T06:00:34.137Z,80.96
2022-08-08T06:03:17.503Z,81.51
2022-08-08T06:06:01.175Z,81.47
2022-08-08T06:08:54.826Z,81.31
2022-08-08T06:11:22.468Z,82.51
2022-08-08T06:13:54.949Z,81.40
2022-08-08T06:16:27.261Z,79.91
2022-08-08T06:18:55.333Z,79.65
2022-08-08T06:21:32.782Z,79.65
2022-08-08T06:24:13.999Z,78.51
2022-08-08T06:27:06.211Z,77.55
2022-08-08T06:29:59.284Z,77.28
2022-08-08T06:32:31.028Z,77.82
2022-08-08T06:36:04.828Z,77.71
2022-08-08T06:37:59.771Z,77.46
2022-08-08T06:40:33.333Z,77.44
2022-08-08T06:43:06.149Z,76.76
2022-08-08T06:45:39.017Z,76.26
2022-08-08T06:48:06.326Z,75.51
2022-08-08T06:50:33.772Z,75.74
2022-08-08T06:53:13.870Z,75.68
2022-08-08T06:55:47.103Z,74.28
2022-08-08T06:58:20.079Z,73.54
2022-08-08T07:00:49.720Z,72.24
2022-08-08T07:03:52.261Z,73.08
2022-08-08T07:06:10.482Z,72.69
2022-08-08T07:08:39.494Z,72.59
2022-08-08T07:11:09.124Z,73.50
2022-08-08T07:14:00.563Z,73.99
2022-08-08T07:16:50.860Z,73.17
2022-08-08T07:19:27.421Z,71.51
2022-08-08T07:22:18.529Z,69.90
2022-08-08T07:24:54.944Z,69.85
2022-08-08T07:27:35.224Z,68.60
2022-08-08T07:30:16.838Z,68.61
2022-08-08T07:32:49.003Z,67.34
2022-08-08T07:35:17.806Z,67.82
2022-08-08T07:37:56.283Z,66.08
2022-08-08T07:40:33.036Z,64.04
2022-08-08T07:43:09.271Z,65.26
2022-08-08T07:46:04.712Z,64.19
2022-08-08T07:48:23.592Z,62.88
2022-08-08T07:50:52.399Z,61.58
2022-08-08T07:54:01.061Z,58.77
2022-08-08T07:56:49.002Z,60.27
2022-08-08T07:59:19.464Z,59.06
2022-08-08T08:02:35.996Z,59.04
2022-08-08T08:04:49.021Z,58.50
2022-08-08T08:07:17.174Z,57.43
2022-08-08T08:09:43.981Z,57.61
2022-08-08T08:12:31.737Z,58.48
2022-08-08T08:15:08.506Z,56.44
2022-08-08T08:17:48.881Z,56.53
2022-08-08T08:20:18.689Z,55.84
2022-08-08T08:22:47.424Z,56.17
2022-08-08T08:25:16.945Z,56.41
2022-08-08T08:27:46.958Z,56.82
2022-08-08T08:30:14.336Z,58.82
2022-08-08T08:32:49.284Z,58.21
2022-08-08T08:35:21.446Z,56.14
2022-08-08T08:38:14.617Z,57.00
2022-08-08T08:40:35.019Z,56.71
2022-08-08T08:43:02.850Z,55.45
2022-08-08T08:45:31.165Z,56.65
2022-08-08T08:48:00.939Z,56.29
2022-08-08T08:50:33.361Z,55.04
2022-08-08T08:53:54.576Z,54.73
2022-08-08T08:56:01.481Z,53.60
2022-08-08T08:58:42.305Z,54.07
2022-08-08T09:01:15.178Z,53.39
2022-08-08T09:03:46.079Z,53.17
2022-08-08T09:06:28.803Z,52.24
2022-08-08T09:09:03.385Z,52.17
2022-08-08T09:11:47.449Z,54.68
2022-08-08T09:14:25.836Z,51.01
2022-08-08T09:16:53.739Z,50.70
2022-08-08T09:21:57.969Z,51.21
2022-08-08T09:22:07.859Z,50.54
2022-08-08T09:24:35.978Z,52.01
2022-08-08T09:27:15.050Z,49.54
2022-08-08T09:30:17.164Z,50.74
2022-08-08T09:33:55.620Z,49.92
2022-08-08T09:35:49.850Z,49.30
2022-08-08T09:38:59.194Z,49.67
2022-08-08T09:42:14.262Z,48.65
2022-08-08T09:44:48.621Z,49.56
2022-08-08T09:47:26.689Z,53.36
2022-08-08T09:50:16.211Z,49.61
2022-08-08T09:52:59.091Z,48.55
2022-08-08T09:55:51.424Z,47.60
2022-08-08T09:58:26.082Z,47.45
2022-08-08T10:01:15.350Z,46.10
2022-08-08T10:03:57.448Z,46.43
2022-08-08T10:06:29.385Z,46.26
2022-08-08T10:08:56.730Z,45.84
2022-08-08T10:12:27.671Z,46.00
2022-08-08T10:14:28.443Z,45.85
2022-08-08T10:16:58.747Z,44.78
2022-08-08T10:19:46.128Z,45.05
2022-08-08T10:22:23.882Z,44.16
2022-08-08T10:25:00.089Z,44.69
2022-08-08T10:27:34.574Z,43.64
2022-08-08T10:30:03.855Z,43.06
2022-08-08T10:32:48.440Z,44.88
2022-08-08T10:35:20.576Z,43.16
2022-08-08T10:38:08.532Z,43.91
2022-08-08T10:40:37.944Z,42.80
2022-08-08T10:43:05.559Z,42.73
2022-08-08T10:45:56.619Z,43.48
2022-08-08T10:48:57.496Z,42.88
2022-08-08T10:51:31.347Z,42.72
2022-08-08T10:54:07.123Z,42.25
2022-08-08T10:56:35.630Z,42.48
2022-08-08T10:59:12.172Z,45.40
2022-08-08T11:01:46.597Z,42.08
2022-08-08T11:04:29.695Z,43.26
2022-08-08T11:07:06.776Z,41.60
2022-08-08T11:09:34.313Z,41.00
2022-08-08T11:12:12.412Z,41.05
2022-08-08T11:14:53.677Z,41.21
2022-08-08T11:17:59.992Z,42.69
2022-08-08T11:20:18.052Z,41.12
2022-08-08T11:22:51.006Z,40.24
2022-08-08T11:25:19.433Z,42.16
2022-08-08T11:28:08.782Z,42.18
2022-08-08T11:30:40.941Z,43.23
2022-08-08T11:33:19.180Z,42.47
2022-08-08T11:35:46.696Z,42.26
2022-08-08T11:38:39.341Z,42.80
2022-08-08T11:41:01.719Z,42.40
2022-08-08T11:43:39.605Z,42.56
2022-08-08T11:46:14.071Z,40.78
2022-08-08T11:48:47.103Z,40.69
2022-08-08T11:51:30.444Z,41.10
2022-08-08T11:54:04.206Z,40.71
2022-08-08T11:56:35.499Z,40.13
2022-08-08T11:59:10.428Z,42.10
2022-08-08T12:01:37.543Z,42.92
2022-08-08T12:04:05.925Z,43.22
2022-08-08T12:06:33.751Z,43.27
2022-08-08T12:09:08.690Z,43.85
2022-08-08T12:11:41.414Z,44.04
2022-08-08T12:14:11.061Z,46.80
2022-08-08T12:16:49.180Z,42.54
2022-08-08T12:19:15.941Z,42.49
2022-08-08T12:22:00.492Z,42.18
2022-08-08T12:24:51.533Z,42.50
2022-08-08T12:27:26.886Z,41.67
2022-08-08T12:29:59.978Z,41.34
2022-08-08T12:32:31.466Z,43.41
2022-08-08T12:35:04.191Z,43.24
2022-08-08T12:37:40.182Z,41.36
2022-08-08T12:40:22.883Z,42.46
2022-08-08T12:42:51.672Z,41.59
2022-08-08T12:45:54.584Z,41.70
2022-08-08T12:48:10.083Z,43.86
2022-08-08T12:50:58.243Z,40.25
2022-08-08T12:53:29.952Z,40.27
2022-08-08T12:56:19.530Z,41.22
2022-08-08T12:58:54.561Z,39.86
2022-08-08T13:01:34.999Z,39.52
2022-08-08T13:04:18.691Z,39.70
2022-08-08T13:06:56.740Z,39.63
2022-08-08T13:09:30.242Z,38.79
2022-08-08T13:12:18.115Z,41.09
2022-08-08T13:14:53.042Z,39.96
2022-08-08T13:18:08.878Z,40.03
2022-08-08T13:20:14.003Z,38.75
2022-08-08T13:22:44.634Z,39.69
2022-08-08T13:25:21.329Z,41.79
2022-08-08T13:27:56.493Z,40.26
2022-08-08T13:30:26.176Z,38.30
2022-08-08T13:32:58.709Z,38.71
2022-08-08T13:35:29.455Z,40.11
2022-08-08T13:38:08.073Z,40.00
2022-08-08T13:40:40.964Z,40.26
2022-08-08T13:43:08.484Z,39.65
2022-08-08T13:45:36.829Z,39.11
2022-08-08T13:48:08.590Z,39.19
2022-08-08T13:50:43.248Z,40.17
2022-08-08T13:53:28.105Z,39.18
2022-08-08T13:56:05.136Z,39.14
2022-08-08T13:58:36.119Z,39.65
2022-08-08T14:01:41.571Z,38.92
2022-08-08T14:04:52.917Z,38.46
2022-08-08T14:07:45.514Z,38.82
2022-08-08T14:13:38.676Z,40.62
2022-08-08T14:16:46.773Z,40.38
2022-08-08T14:20:07.610Z,40.29
2022-08-08T14:23:03.648Z,41.65
2022-08-08T14:26:30.040Z,41.06
2022-08-08T14:29:11.776Z,41.62
2022-08-08T14:35:11.054Z,40.51
2022-08-08T14:38:00.299Z,41.60
2022-08-08T14:44:13.229Z,41.72
2022-08-08T14:50:38.410Z,41.01
2022-08-08T14:53:28.576Z,41.37
2022-08-08T14:56:29.382Z,39.03
2022-08-08T14:59:04.802Z,41.24
2022-08-08T15:02:03.170Z,39.95
2022-08-08T15:04:46.608Z,40.06
2022-08-08T15:07:40.390Z,39.29
2022-08-08T15:10:13.174Z,40.06
2022-08-08T15:13:10.643Z,40.32
2022-08-08T15:16:39.178Z,40.84
2022-08-08T15:19:35.049Z,40.99
2022-08-08T15:22:17.889Z,41.62
2022-08-08T15:25:08.518Z,40.25
2022-08-08T15:28:03.971Z,40.78
2022-08-08T15:30:48.834Z,40.85
2022-08-08T15:33:38.322Z,41.37
2022-08-08T15:36:18.667Z,40.63
2022-08-08T15:39:04.094Z,40.92
2022-08-08T15:41:55.170Z,41.03
2022-08-08T15:44:38.640Z,41.45
2022-08-08T15:47:28.174Z,40.95
2022-08-08T15:50:09.682Z,41.89
2022-08-08T15:53:20.024Z,42.31
2022-08-08T15:55:47.338Z,41.11
2022-08-08T15:58:16.736Z,41.29
2022-08-08T16:00:47.323Z,41.94
2022-08-08T16:03:17.189Z,41.52
2022-08-08T16:06:01.030Z,40.83
2022-08-08T16:08:28.849Z,42.92
2022-08-08T16:13:02.255Z,42.99
2022-08-08T16:13:46.296Z,42.66
2022-08-08T16:16:17.935Z,43.85
2022-08-08T16:18:57.366Z,42.64
2022-08-08T16:21:27.703Z,43.32
2022-08-08T16:23:56.121Z,43.08
2022-08-08T16:26:33.993Z,42.38
2022-08-08T16:29:02.406Z,43.28
2022-08-08T16:31:29.966Z,43.20
2022-08-08T16:33:59.389Z,43.71
2022-08-08T16:36:34.047Z,43.79
2022-08-08T16:39:01.461Z,43.41
2022-08-08T16:41:36.968Z,43.98
2022-08-08T16:44:04.738Z,43.40
2022-08-08T16:46:36.595Z,43.11
2022-08-08T16:49:11.560Z,43.59
2022-08-08T16:55:04.908Z,43.78
2022-08-08T16:55:24.387Z,43.46
2022-08-08T16:57:23.222Z,43.68
2022-08-08T17:00:06.172Z,43.93
2022-08-08T17:02:39.248Z,43.77
2022-08-08T17:05:08.247Z,44.58
2022-08-08T17:07:37.939Z,43.14
2022-08-08T17:10:08.993Z,43.51
2022-08-08T17:12:36.658Z,43.57
2022-08-08T17:15:17.804Z,43.73
2022-08-08T17:18:02.225Z,43.96
2022-08-08T17:20:33.337Z,43.87
2022-08-08T17:23:25.707Z,44.45
2022-08-08T17:25:54.344Z,44.82
2022-08-08T17:28:34.509Z,44.23
2022-08-08T17:31:39.444Z,44.29
2022-08-08T17:34:54.038Z,44.61
2022-08-08T17:36:53.775Z,44.79
2022-08-08T17:40:04.335Z,44.07
2022-08-08T17:42:14.053Z,44.11
2022-08-08T17:44:44.520Z,43.79
2022-08-08T17:47:23.335Z,44.16
2022-08-08T17:50:01.328Z,43.92
2022-08-08T17:52:35.118Z,44.21
2022-08-08T17:55:05.145Z,44.64
2022-08-08T17:57:35.191Z,44.52
2022-08-08T18:00:06.601Z,45.04
2022-08-08T18:02:40.110Z,45.42
2022-08-08T18:05:14.685Z,46.35
2022-08-08T18:08:01.897Z,46.47
2022-08-08T18:10:31.331Z,46.52
2022-08-08T18:12:58.157Z,46.51
2022-08-08T18:15:25.133Z,46.97
2022-08-08T18:18:05.285Z,46.73
2022-08-08T18:20:52.215Z,47.18
2022-08-08T18:23:22.232Z,46.85
2022-08-08T18:25:50.122Z,47.25
2022-08-08T18:28:23.391Z,47.59
2022-08-08T18:30:52.269Z,47.05
2022-08-08T18:33:20.003Z,46.92
2022-08-08T18:36:10.198Z,47.38
2022-08-08T18:38:46.341Z,47.50
2022-08-08T18:41:15.817Z,48.12
2022-08-08T18:43:43.528Z,49.25
2022-08-08T18:46:54.803Z,49.59
2022-08-08T18:48:57.847Z,49.77
2022-08-08T18:51:48.265Z,49.76
2022-08-08T18:54:22.035Z,49.89
2022-08-08T18:56:49.973Z,49.89
2022-08-08T18:59:17.018Z,50.07
2022-08-08T19:02:26.411Z,50.59
2022-08-08T19:04:31.008Z,50.09
2022-08-08T19:06:57.595Z,50.01
2022-08-08T19:09:48.248Z,50.25
2022-08-08T19:12:13.493Z,50.73
2022-08-08T19:14:40.265Z,51.17
2022-08-08T19:17:10.567Z,50.75
2022-08-08T19:19:37.616Z,51.00
2022-08-08T19:22:11.079Z,51.34
2022-08-08T19:24:49.106Z,51.83
2022-08-08T19:27:56.465Z,52.39
2022-08-08T19:30:18.094Z,52.94
2022-08-08T19:32:51.353Z,53.85
2022-08-08T19:35:20.048Z,53.63
2022-08-08T19:37:57.646Z,54.19
2022-08-08T19:40:31.130Z,53.94
2022-08-08T19:43:03.575Z,52.81
2022-08-08T19:45:59.156Z,52.76
2022-08-08T19:48:29.486Z,53.42
2022-08-08T19:51:00.781Z,54.21
2022-08-08T19:53:51.203Z,55.00
2022-08-08T19:56:16.374Z,55.96
2022-08-08T19:58:52.910Z,56.70
2022-08-08T20:01:31.619Z,57.32
2022-08-08T20:04:08.413Z,57.45
2022-08-08T20:06:35.834Z,57.71
2022-08-08T20:09:04.640Z,57.82
2022-08-08T20:11:42.836Z,57.85
2022-08-08T20:14:13.280Z,59.35
2022-08-08T20:16:56.693Z,59.87
2022-08-08T20:19:26.304Z,61.43
2022-08-08T20:22:03.085Z,60.84
2022-08-08T20:24:31.981Z,60.07
2022-08-08T20:26:58.552Z,61.45
2022-08-08T20:29:25.898Z,61.55
2022-08-08T20:32:14.087Z,61.93
2022-08-08T20:34:47.926Z,61.42
2022-08-08T20:37:20.479Z,63.03
2022-08-08T20:39:51.193Z,62.71
2022-08-08T20:42:29.149Z,63.48
2022-08-08T20:44:57.708Z,63.82
2022-08-08T20:47:25.518Z,64.19
2022-08-08T20:49:55.818Z,64.24
2022-08-08T20:52:26.106Z,64.13
2022-08-08T20:54:52.706Z,63.23
2022-08-08T20:57:21.082Z,64.31
2022-08-08T20:59:48.436Z,65.79
2022-08-08T21:02:25.231Z,66.16
2022-08-08T21:05:00.850Z,65.87
2022-08-08T21:07:47.134Z,64.96
2022-08-08T21:10:14.840Z,66.33
2022-08-08T21:12:44.603Z,66.15
2022-08-08T21:15:16.605Z,66.20
2022-08-08T21:17:59.681Z,65.59
2022-08-08T21:20:34.020Z,67.41
2022-08-08T21:23:01.538Z,67.62
2022-08-08T21:25:29.171Z,67.80
2022-08-08T21:28:09.625Z,67.44
2022-08-08T21:30:42.733Z,66.49
2022-08-08T21:33:12.225Z,65.86
2022-08-08T21:36:16.156Z,65.96
2022-08-08T21:38:27.011Z,67.19
2022-08-08T21:40:56.239Z,68.34
2022-08-08T21:43:25.816Z,67.92
2022-08-08T21:48:05.671Z,68.17
2022-08-08T21:48:49.365Z,67.55
2022-08-08T21:51:20.283Z,67.31
2022-08-08T21:54:36.071Z,68.96
2022-08-08T21:56:54.058Z,68.67
2022-08-08T21:59:20.873Z,68.87
2022-08-08T22:01:52.034Z,69.41
2022-08-08T22:04:22.196Z,69.00
2022-08-08T22:06:51.791Z,69.10
2022-08-08T22:09:18.407Z,68.97
2022-08-08T22:12:02.208Z,68.24
2022-08-08T22:14:33.185Z,70.50
2022-08-08T22:17:01.138Z,70.67
2022-08-08T22:19:29.482Z,71.37
2022-08-08T22:21:56.770Z,71.05
2022-08-08T22:24:28.546Z,71.84
2022-08-08T22:27:02.366Z,72.66
2022-08-08T22:29:59.127Z,72.67
2022-08-08T22:32:18.846Z,72.85
2022-08-08T22:34:51.345Z,71.47
2022-08-08T22:37:27.913Z,70.38
2022-08-08T22:40:12.042Z,70.18
2022-08-08T22:42:45.775Z,70.20
2022-08-08T22:45:14.199Z,70.31
2022-08-08T22:47:47.223Z,72.78
2022-08-08T22:50:27.317Z,72.08
2022-08-08T22:54:28.347Z,71.47
2022-08-08T22:55:57.993Z,72.22
2022-08-08T22:58:34.382Z,72.37
2022-08-08T23:01:26.585Z,73.43
2022-08-08T23:03:55.944Z,73.16
2022-08-08T23:06:24.261Z,73.16
2022-08-08T23:08:58.345Z,73.33
2022-08-08T23:12:17.711Z,73.69
2022-08-08T23:14:18.510Z,74.20
2022-08-08T23:16:48.202Z,73.62
2022-08-08T23:19:21.194Z,72.70
2022-08-08T23:21:48.889Z,72.72
2022-08-08T23:24:22.505Z,73.78
2022-08-08T23:26:55.313Z,72.97
2022-08-08T23:29:23.871Z,73.17
2022-08-08T23:31:50.339Z,73.58
2022-08-08T23:34:19.581Z,74.66
2022-08-08T23:36:48.255Z,74.57
2022-08-08T23:39:15.617Z,73.70
2022-08-08T23:41:46.968Z,72.87
2022-08-08T23:44:18.689Z,73.49
2022-08-08T23:49:02.530Z,74.16
2022-08-08T23:49:33.433Z,74.44
2022-08-08T23:52:04.094Z,74.60
2022-08-08T23:54:43.053Z,74.46
2022-08-08T23:57:26.230Z,76.01
